sensor_id;sensor_type;location;lat;lon;timestamp;P1;durP1;ratioP1;P2;durP2;ratioP2
19161;SDS011;9713;48.140;11.530;2023-07-30T00:03:32;1.97;;;1.20;;
19161;SDS011;9713;48.140;11.530;2023-07-30T00:07:15;1.83;;;1.33;;
19161;SDS011;9713;48.140;11.530;2023-07-30T00:10:58;3.37;;;1.40;;
19161;SDS011;9713;48.140;11.530;2023-07-30T00:14:41;2.42;;;1.92;;
19161;SDS011;9713;48.140;11.530;2023-07-30T00:18:24;2.67;;;1.93;;
19161;SDS011;9713;48.140;11.530;2023-07-30T00:22:10;1.80;;;1.50;;
19161;SDS011;9713;48.140;11.530;2023-07-30T00:25:53;2.47;;;1.40;;
19161;SDS011;9713;48.140;11.530;2023-07-30T00:29:36;3.40;;;1.87;;
19161;SDS011;9713;48.140;11.530;2023-07-30T00:33:18;1.70;;;1.13;;
19161;SDS011;9713;48.140;11.530;2023-07-30T00:37:01;1.53;;;1.40;;
19161;SDS011;9713;48.140;11.530;2023-07-30T00:40:45;1.50;;;1.30;;
19161;SDS011;9713;48.140;11.530;2023-07-30T00:44:28;1.83;;;1.40;;
19161;SDS011;9713;48.140;11.530;2023-07-30T00:48:11;1.83;;;1.43;;
19161;SDS011;9713;48.140;11.530;2023-07-30T00:51:54;2.50;;;1.40;;
19161;SDS011;9713;48.140;11.530;2023-07-30T00:55:38;2.23;;;1.70;;
19161;SDS011;9713;48.140;11.530;2023-07-30T00:59:22;1.90;;;1.60;;
19161;SDS011;9713;48.140;11.530;2023-07-30T01:03:05;1.77;;;1.40;;
19161;SDS011;9713;48.140;11.530;2023-07-30T01:06:48;2.00;;;1.50;;
19161;SDS011;9713;48.140;11.530;2023-07-30T01:10:32;3.45;;;1.50;;
19161;SDS011;9713;48.140;11.530;2023-07-30T01:14:15;1.90;;;1.50;;
19161;SDS011;9713;48.140;11.530;2023-07-30T01:18:01;2.95;;;2.05;;
19161;SDS011;9713;48.140;11.530;2023-07-30T01:21:45;2.72;;;1.65;;
19161;SDS011;9713;48.140;11.530;2023-07-30T01:25:29;2.67;;;1.77;;
19161;SDS011;9713;48.140;11.530;2023-07-30T01:29:14;2.05;;;1.60;;
19161;SDS011;9713;48.140;11.530;2023-07-30T01:32:58;2.47;;;1.50;;
19161;SDS011;9713;48.140;11.530;2023-07-30T01:36:44;2.73;;;1.70;;
19161;SDS011;9713;48.140;11.530;2023-07-30T01:40:28;3.07;;;1.50;;
19161;SDS011;9713;48.140;11.530;2023-07-30T01:44:11;2.10;;;1.70;;
19161;SDS011;9713;48.140;11.530;2023-07-30T01:47:54;3.30;;;1.67;;
19161;SDS011;9713;48.140;11.530;2023-07-30T01:51:37;1.83;;;1.40;;
19161;SDS011;9713;48.140;11.530;2023-07-30T01:55:21;2.97;;;1.60;;
19161;SDS011;9713;48.140;11.530;2023-07-30T01:59:04;3.03;;;1.50;;
19161;SDS011;9713;48.140;11.530;2023-07-30T02:02:47;3.20;;;1.47;;
19161;SDS011;9713;48.140;11.530;2023-07-30T02:06:30;2.80;;;1.60;;
19161;SDS011;9713;48.140;11.530;2023-07-30T02:10:13;2.70;;;1.73;;
19161;SDS011;9713;48.140;11.530;2023-07-30T02:13:57;3.87;;;1.80;;
19161;SDS011;9713;48.140;11.530;2023-07-30T02:17:40;1.90;;;1.70;;
19161;SDS011;9713;48.140;11.530;2023-07-30T02:21:22;5.30;;;2.10;;
19161;SDS011;9713;48.140;11.530;2023-07-30T02:25:05;2.83;;;1.83;;
19161;SDS011;9713;48.140;11.530;2023-07-30T02:28:49;2.73;;;1.70;;
19161;SDS011;9713;48.140;11.530;2023-07-30T02:32:33;2.87;;;2.17;;
19161;SDS011;9713;48.140;11.530;2023-07-30T02:36:15;2.07;;;1.83;;
19161;SDS011;9713;48.140;11.530;2023-07-30T02:39:58;2.73;;;2.10;;
19161;SDS011;9713;48.140;11.530;2023-07-30T02:43:43;3.30;;;1.77;;
19161;SDS011;9713;48.140;11.530;2023-07-30T02:47:26;1.80;;;1.70;;
19161;SDS011;9713;48.140;11.530;2023-07-30T02:51:10;4.77;;;2.10;;
19161;SDS011;9713;48.140;11.530;2023-07-30T02:54:53;2.30;;;1.70;;
19161;SDS011;9713;48.140;11.530;2023-07-30T02:58:35;3.83;;;2.00;;
19161;SDS011;9713;48.140;11.530;2023-07-30T03:02:18;1.92;;;1.70;;
19161;SDS011;9713;48.140;11.530;2023-07-30T03:06:01;2.03;;;1.83;;
19161;SDS011;9713;48.140;11.530;2023-07-30T03:09:45;3.53;;;1.80;;
19161;SDS011;9713;48.140;11.530;2023-07-30T03:13:28;4.57;;;2.97;;
19161;SDS011;9713;48.140;11.530;2023-07-30T03:17:11;3.80;;;2.13;;
19161;SDS011;9713;48.140;11.530;2023-07-30T03:20:57;4.17;;;2.40;;
19161;SDS011;9713;48.140;11.530;2023-07-30T03:24:40;3.13;;;2.50;;
19161;SDS011;9713;48.140;11.530;2023-07-30T03:28:25;2.53;;;2.13;;
19161;SDS011;9713;48.140;11.530;2023-07-30T03:32:07;5.10;;;2.70;;
19161;SDS011;9713;48.140;11.530;2023-07-30T03:35:50;3.83;;;2.53;;
19161;SDS011;9713;48.140;11.530;2023-07-30T03:39:33;5.07;;;2.30;;
19161;SDS011;9713;48.140;11.530;2023-07-30T03:43:16;4.30;;;2.30;;
19161;SDS011;9713;48.140;11.530;2023-07-30T03:47:00;3.17;;;2.40;;
19161;SDS011;9713;48.140;11.530;2023-07-30T03:50:43;3.83;;;2.37;;
19161;SDS011;9713;48.140;11.530;2023-07-30T03:54:25;2.90;;;2.37;;
19161;SDS011;9713;48.140;11.530;2023-07-30T03:58:08;2.60;;;2.20;;
19161;SDS011;9713;48.140;11.530;2023-07-30T04:01:51;4.40;;;2.43;;
19161;SDS011;9713;48.140;11.530;2023-07-30T04:05:35;3.63;;;2.27;;
19161;SDS011;9713;48.140;11.530;2023-07-30T04:09:18;2.87;;;2.30;;
19161;SDS011;9713;48.140;11.530;2023-07-30T04:13:01;2.53;;;2.20;;
19161;SDS011;9713;48.140;11.530;2023-07-30T04:16:43;2.57;;;2.20;;
19161;SDS011;9713;48.140;11.530;2023-07-30T04:20:28;3.50;;;2.40;;
19161;SDS011;9713;48.140;11.530;2023-07-30T04:24:12;3.17;;;2.20;;
19161;SDS011;9713;48.140;11.530;2023-07-30T04:27:55;4.23;;;2.03;;
19161;SDS011;9713;48.140;11.530;2023-07-30T04:31:38;3.63;;;2.20;;
19161;SDS011;9713;48.140;11.530;2023-07-30T04:35:21;5.63;;;2.30;;
19161;SDS011;9713;48.140;11.530;2023-07-30T04:39:04;4.13;;;2.20;;
19161;SDS011;9713;48.140;11.530;2023-07-30T04:42:48;2.27;;;1.87;;
19161;SDS011;9713;48.140;11.530;2023-07-30T04:46:30;3.53;;;2.20;;
19161;SDS011;9713;48.140;11.530;2023-07-30T04:50:14;3.23;;;2.00;;
19161;SDS011;9713;48.140;11.530;2023-07-30T04:53:57;4.60;;;1.93;;
19161;SDS011;9713;48.140;11.530;2023-07-30T04:57:40;3.27;;;2.10;;
19161;SDS011;9713;48.140;11.530;2023-07-30T05:01:24;2.13;;;1.87;;
19161;SDS011;9713;48.140;11.530;2023-07-30T05:05:07;3.30;;;1.90;;
19161;SDS011;9713;48.140;11.530;2023-07-30T05:08:50;2.30;;;1.80;;
19161;SDS011;9713;48.140;11.530;2023-07-30T05:12:33;3.65;;;2.08;;
19161;SDS011;9713;48.140;11.530;2023-07-30T05:16:16;2.37;;;1.97;;
19161;SDS011;9713;48.140;11.530;2023-07-30T05:20:00;2.80;;;2.23;;
19161;SDS011;9713;48.140;11.530;2023-07-30T05:23:43;2.93;;;2.00;;
19161;SDS011;9713;48.140;11.530;2023-07-30T05:27:26;2.90;;;2.03;;
19161;SDS011;9713;48.140;11.530;2023-07-30T05:31:10;2.83;;;2.30;;
19161;SDS011;9713;48.140;11.530;2023-07-30T05:34:52;4.70;;;1.93;;
19161;SDS011;9713;48.140;11.530;2023-07-30T05:38:37;2.37;;;2.00;;
19161;SDS011;9713;48.140;11.530;2023-07-30T05:42:19;2.27;;;1.77;;
19161;SDS011;9713;48.140;11.530;2023-07-30T05:46:02;2.93;;;2.23;;
19161;SDS011;9713;48.140;11.530;2023-07-30T05:49:45;2.47;;;1.80;;
19161;SDS011;9713;48.140;11.530;2023-07-30T05:53:28;2.33;;;1.98;;
19161;SDS011;9713;48.140;11.530;2023-07-30T05:57:12;2.33;;;1.83;;
19161;SDS011;9713;48.140;11.530;2023-07-30T06:00:54;1.80;;;1.50;;
19161;SDS011;9713;48.140;11.530;2023-07-30T06:04:37;2.43;;;1.90;;
19161;SDS011;9713;48.140;11.530;2023-07-30T06:08:21;2.10;;;1.80;;
19161;SDS011;9713;48.140;11.530;2023-07-30T06:12:04;2.28;;;1.80;;
19161;SDS011;9713;48.140;11.530;2023-07-30T06:15:49;2.97;;;2.00;;
19161;SDS011;9713;48.140;11.530;2023-07-30T06:19:32;3.70;;;1.80;;
19161;SDS011;9713;48.140;11.530;2023-07-30T06:23:14;2.47;;;1.70;;
19161;SDS011;9713;48.140;11.530;2023-07-30T06:26:57;3.67;;;1.70;;
19161;SDS011;9713;48.140;11.530;2023-07-30T06:30:40;2.30;;;1.80;;
19161;SDS011;9713;48.140;11.530;2023-07-30T06:34:24;4.13;;;1.98;;
19161;SDS011;9713;48.140;11.530;2023-07-30T06:38:08;3.40;;;1.70;;
19161;SDS011;9713;48.140;11.530;2023-07-30T06:41:53;4.32;;;1.70;;
19161;SDS011;9713;48.140;11.530;2023-07-30T06:45:36;2.40;;;2.00;;
19161;SDS011;9713;48.140;11.530;2023-07-30T06:49:19;2.65;;;1.90;;
19161;SDS011;9713;48.140;11.530;2023-07-30T06:53:06;2.97;;;1.70;;
19161;SDS011;9713;48.140;11.530;2023-07-30T06:56:48;2.47;;;1.98;;
19161;SDS011;9713;48.140;11.530;2023-07-30T07:00:31;2.53;;;1.90;;
19161;SDS011;9713;48.140;11.530;2023-07-30T07:04:14;2.63;;;2.00;;
19161;SDS011;9713;48.140;11.530;2023-07-30T07:07:57;2.57;;;1.90;;
19161;SDS011;9713;48.140;11.530;2023-07-30T07:11:41;4.35;;;2.00;;
19161;SDS011;9713;48.140;11.530;2023-07-30T07:15:24;2.72;;;1.83;;
19161;SDS011;9713;48.140;11.530;2023-07-30T07:19:06;3.65;;;1.70;;
19161;SDS011;9713;48.140;11.530;2023-07-30T07:22:49;2.95;;;2.10;;
19161;SDS011;9713;48.140;11.530;2023-07-30T07:26:32;2.47;;;1.98;;
19161;SDS011;9713;48.140;11.530;2023-07-30T07:30:17;2.00;;;1.73;;
19161;SDS011;9713;48.140;11.530;2023-07-30T07:33:59;3.90;;;1.80;;
19161;SDS011;9713;48.140;11.530;2023-07-30T07:37:42;3.22;;;1.80;;
19161;SDS011;9713;48.140;11.530;2023-07-30T07:41:25;2.75;;;1.70;;
19161;SDS011;9713;48.140;11.530;2023-07-30T07:45:08;2.97;;;1.50;;
19161;SDS011;9713;48.140;11.530;2023-07-30T07:49:03;2.10;;;1.60;;
19161;SDS011;9713;48.140;11.530;2023-07-30T07:52:45;3.80;;;1.67;;
19161;SDS011;9713;48.140;11.530;2023-07-30T07:56:29;2.88;;;1.60;;
19161;SDS011;9713;48.140;11.530;2023-07-30T08:00:12;2.00;;;1.58;;
19161;SDS011;9713;48.140;11.530;2023-07-30T08:03:59;2.22;;;1.80;;
19161;SDS011;9713;48.140;11.530;2023-07-30T08:07:45;2.10;;;1.80;;
19161;SDS011;9713;48.140;11.530;2023-07-30T08:11:30;2.30;;;1.70;;
19161;SDS011;9713;48.140;11.530;2023-07-30T08:15:13;2.60;;;1.70;;
19161;SDS011;9713;48.140;11.530;2023-07-30T08:18:56;2.22;;;1.67;;
19161;SDS011;9713;48.140;11.530;2023-07-30T08:22:39;2.63;;;1.50;;
19161;SDS011;9713;48.140;11.530;2023-07-30T08:26:25;2.13;;;1.42;;
19161;SDS011;9713;48.140;11.530;2023-07-30T08:30:08;2.17;;;1.70;;
19161;SDS011;9713;48.140;11.530;2023-07-30T08:33:51;2.20;;;1.80;;
19161;SDS011;9713;48.140;11.530;2023-07-30T08:37:34;1.60;;;1.50;;
19161;SDS011;9713;48.140;11.530;2023-07-30T08:41:17;3.85;;;1.65;;
19161;SDS011;9713;48.140;11.530;2023-07-30T08:45:01;2.20;;;1.85;;
19161;SDS011;9713;48.140;11.530;2023-07-30T08:48:48;3.20;;;1.80;;
19161;SDS011;9713;48.140;11.530;2023-07-30T08:52:32;2.47;;;2.08;;
19161;SDS011;9713;48.140;11.530;2023-07-30T08:56:26;2.83;;;1.88;;
19161;SDS011;9713;48.140;11.530;2023-07-30T09:00:11;4.43;;;2.45;;
19161;SDS011;9713;48.140;11.530;2023-07-30T09:03:55;2.22;;;1.70;;
19161;SDS011;9713;48.140;11.530;2023-07-30T09:07:41;2.25;;;1.65;;
19161;SDS011;9713;48.140;11.530;2023-07-30T09:11:25;3.17;;;2.00;;
19161;SDS011;9713;48.140;11.530;2023-07-30T09:15:11;2.20;;;1.77;;
19161;SDS011;9713;48.140;11.530;2023-07-30T09:18:54;2.30;;;1.80;;
19161;SDS011;9713;48.140;11.530;2023-07-30T09:22:47;1.80;;;1.50;;
19161;SDS011;9713;48.140;11.530;2023-07-30T09:26:53;2.47;;;1.40;;
19161;SDS011;9713;48.140;11.530;2023-07-30T09:30:37;2.60;;;1.70;;
19161;SDS011;9713;48.140;11.530;2023-07-30T09:34:22;2.50;;;1.50;;
19161;SDS011;9713;48.140;11.530;2023-07-30T09:38:08;2.80;;;1.92;;
19161;SDS011;9713;48.140;11.530;2023-07-30T09:42:26;2.50;;;2.10;;
19161;SDS011;9713;48.140;11.530;2023-07-30T09:46:10;3.13;;;2.05;;
19161;SDS011;9713;48.140;11.530;2023-07-30T09:49:53;1.70;;;1.40;;
19161;SDS011;9713;48.140;11.530;2023-07-30T09:53:39;2.25;;;1.60;;
19161;SDS011;9713;48.140;11.530;2023-07-30T09:57:22;2.70;;;1.50;;
19161;SDS011;9713;48.140;11.530;2023-07-30T10:01:05;2.65;;;2.20;;
19161;SDS011;9713;48.140;11.530;2023-07-30T10:04:50;3.13;;;1.63;;
19161;SDS011;9713;48.140;11.530;2023-07-30T10:08:34;1.80;;;1.35;;
19161;SDS011;9713;48.140;11.530;2023-07-30T10:12:21;1.83;;;1.50;;
19161;SDS011;9713;48.140;11.530;2023-07-30T10:16:09;2.33;;;1.30;;
19161;SDS011;9713;48.140;11.530;2023-07-30T10:19:53;3.33;;;1.60;;
19161;SDS011;9713;48.140;11.530;2023-07-30T10:23:39;1.80;;;1.15;;
19161;SDS011;9713;48.140;11.530;2023-07-30T10:27:35;2.85;;;1.20;;
19161;SDS011;9713;48.140;11.530;2023-07-30T10:31:19;1.55;;;1.10;;
19161;SDS011;9713;48.140;11.530;2023-07-30T10:35:04;1.95;;;1.30;;
19161;SDS011;9713;48.140;11.530;2023-07-30T10:38:47;1.80;;;1.40;;
19161;SDS011;9713;48.140;11.530;2023-07-30T10:42:33;1.50;;;1.30;;
19161;SDS011;9713;48.140;11.530;2023-07-30T10:46:16;2.72;;;1.23;;
19161;SDS011;9713;48.140;11.530;2023-07-30T10:50:00;2.10;;;1.48;;
19161;SDS011;9713;48.140;11.530;2023-07-30T10:53:46;3.85;;;2.17;;
19161;SDS011;9713;48.140;11.530;2023-07-30T10:57:29;1.60;;;1.38;;
19161;SDS011;9713;48.140;11.530;2023-07-30T11:01:13;2.20;;;1.80;;
19161;SDS011;9713;48.140;11.530;2023-07-30T11:04:57;3.55;;;1.80;;
19161;SDS011;9713;48.140;11.530;2023-07-30T11:08:40;2.95;;;1.48;;
19161;SDS011;9713;48.140;11.530;2023-07-30T11:12:28;1.88;;;1.58;;
19161;SDS011;9713;48.140;11.530;2023-07-30T11:16:11;2.55;;;1.63;;
19161;SDS011;9713;48.140;11.530;2023-07-30T11:19:54;2.15;;;1.60;;
19161;SDS011;9713;48.140;11.530;2023-07-30T11:23:37;1.83;;;1.23;;
19161;SDS011;9713;48.140;11.530;2023-07-30T11:27:23;1.90;;;1.60;;
19161;SDS011;9713;48.140;11.530;2023-07-30T11:31:07;1.95;;;1.50;;
19161;SDS011;9713;48.140;11.530;2023-07-30T11:34:51;1.95;;;1.58;;
19161;SDS011;9713;48.140;11.530;2023-07-30T11:38:35;1.95;;;1.65;;
19161;SDS011;9713;48.140;11.530;2023-07-30T11:42:18;3.83;;;1.55;;
19161;SDS011;9713;48.140;11.530;2023-07-30T11:46:09;2.10;;;1.60;;
19161;SDS011;9713;48.140;11.530;2023-07-30T11:49:55;2.88;;;1.23;;
19161;SDS011;9713;48.140;11.530;2023-07-30T11:53:44;3.20;;;1.42;;
19161;SDS011;9713;48.140;11.530;2023-07-30T11:57:32;1.70;;;1.40;;
19161;SDS011;9713;48.140;11.530;2023-07-30T12:01:17;1.52;;;1.27;;
19161;SDS011;9713;48.140;11.530;2023-07-30T12:05:00;2.38;;;1.38;;
19161;SDS011;9713;48.140;11.530;2023-07-30T12:08:52;1.77;;;1.30;;
19161;SDS011;9713;48.140;11.530;2023-07-30T12:12:35;2.08;;;1.63;;
19161;SDS011;9713;48.140;11.530;2023-07-30T12:16:20;2.58;;;1.55;;
19161;SDS011;9713;48.140;11.530;2023-07-30T12:20:03;1.90;;;1.52;;
19161;SDS011;9713;48.140;11.530;2023-07-30T12:23:48;3.13;;;1.67;;
19161;SDS011;9713;48.140;11.530;2023-07-30T12:27:31;3.40;;;1.35;;
19161;SDS011;9713;48.140;11.530;2023-07-30T12:31:13;2.65;;;1.60;;
19161;SDS011;9713;48.140;11.530;2023-07-30T12:34:58;5.43;;;2.00;;
19161;SDS011;9713;48.140;11.530;2023-07-30T12:38:42;3.40;;;1.83;;
19161;SDS011;9713;48.140;11.530;2023-07-30T12:42:27;2.42;;;1.70;;
19161;SDS011;9713;48.140;11.530;2023-07-30T12:46:10;1.70;;;1.50;;
19161;SDS011;9713;48.140;11.530;2023-07-30T12:49:53;3.65;;;1.63;;
19161;SDS011;9713;48.140;11.530;2023-07-30T12:53:38;2.88;;;1.90;;
19161;SDS011;9713;48.140;11.530;2023-07-30T12:57:22;3.47;;;1.63;;
19161;SDS011;9713;48.140;11.530;2023-07-30T13:01:05;2.95;;;1.60;;
19161;SDS011;9713;48.140;11.530;2023-07-30T13:04:48;2.28;;;1.80;;
19161;SDS011;9713;48.140;11.530;2023-07-30T13:08:31;2.40;;;1.63;;
19161;SDS011;9713;48.140;11.530;2023-07-30T13:12:15;2.92;;;1.90;;
19161;SDS011;9713;48.140;11.530;2023-07-30T13:16:00;2.85;;;1.73;;
19161;SDS011;9713;48.140;11.530;2023-07-30T13:19:43;2.53;;;1.75;;
19161;SDS011;9713;48.140;11.530;2023-07-30T13:23:27;2.55;;;1.50;;
19161;SDS011;9713;48.140;11.530;2023-07-30T13:27:11;2.17;;;1.60;;
19161;SDS011;9713;48.140;11.530;2023-07-30T13:30:56;1.90;;;1.60;;
19161;SDS011;9713;48.140;11.530;2023-07-30T13:34:39;2.03;;;1.70;;
19161;SDS011;9713;48.140;11.530;2023-07-30T13:38:22;2.50;;;1.80;;
19161;SDS011;9713;48.140;11.530;2023-07-30T13:42:07;3.25;;;1.70;;
19161;SDS011;9713;48.140;11.530;2023-07-30T13:45:50;7.43;;;2.10;;
19161;SDS011;9713;48.140;11.530;2023-07-30T13:49:35;3.83;;;2.58;;
19161;SDS011;9713;48.140;11.530;2023-07-30T13:53:19;2.42;;;2.03;;
19161;SDS011;9713;48.140;11.530;2023-07-30T13:57:03;4.28;;;2.33;;
19161;SDS011;9713;48.140;11.530;2023-07-30T14:00:46;2.78;;;2.30;;
19161;SDS011;9713;48.140;11.530;2023-07-30T14:04:29;5.47;;;2.60;;
19161;SDS011;9713;48.140;11.530;2023-07-30T14:08:13;3.38;;;2.10;;
19161;SDS011;9713;48.140;11.530;2023-07-30T14:11:56;2.25;;;1.88;;
19161;SDS011;9713;48.140;11.530;2023-07-30T14:15:39;2.08;;;1.80;;
19161;SDS011;9713;48.140;11.530;2023-07-30T14:19:22;5.18;;;2.08;;
19161;SDS011;9713;48.140;11.530;2023-07-30T14:23:05;2.80;;;1.80;;
19161;SDS011;9713;48.140;11.530;2023-07-30T14:26:49;2.45;;;1.58;;
19161;SDS011;9713;48.140;11.530;2023-07-30T14:30:32;3.22;;;1.83;;
19161;SDS011;9713;48.140;11.530;2023-07-30T14:34:15;5.18;;;2.35;;
19161;SDS011;9713;48.140;11.530;2023-07-30T14:37:58;4.88;;;2.10;;
19161;SDS011;9713;48.140;11.530;2023-07-30T14:41:40;5.03;;;1.90;;
19161;SDS011;9713;48.140;11.530;2023-07-30T14:45:25;3.22;;;2.17;;
19161;SDS011;9713;48.140;11.530;2023-07-30T14:49:07;8.10;;;2.10;;
19161;SDS011;9713;48.140;11.530;2023-07-30T14:52:50;3.72;;;2.00;;
19161;SDS011;9713;48.140;11.530;2023-07-30T14:56:33;2.00;;;1.70;;
19161;SDS011;9713;48.140;11.530;2023-07-30T15:00:16;3.13;;;1.90;;
19161;SDS011;9713;48.140;11.530;2023-07-30T15:04:00;2.30;;;1.60;;
19161;SDS011;9713;48.140;11.530;2023-07-30T15:07:43;2.42;;;1.90;;
19161;SDS011;9713;48.140;11.530;2023-07-30T15:11:26;5.82;;;2.10;;
19161;SDS011;9713;48.140;11.530;2023-07-30T15:15:09;4.75;;;1.90;;
19161;SDS011;9713;48.140;11.530;2023-07-30T15:18:52;3.17;;;1.38;;
19161;SDS011;9713;48.140;11.530;2023-07-30T15:22:38;2.50;;;1.63;;
19161;SDS011;9713;48.140;11.530;2023-07-30T15:26:21;4.13;;;1.80;;
19161;SDS011;9713;48.140;11.530;2023-07-30T15:30:04;1.70;;;1.60;;
19161;SDS011;9713;48.140;11.530;2023-07-30T15:33:48;2.53;;;1.75;;
19161;SDS011;9713;48.140;11.530;2023-07-30T15:37:31;3.03;;;1.50;;
19161;SDS011;9713;48.140;11.530;2023-07-30T15:41:15;5.80;;;1.42;;
19161;SDS011;9713;48.140;11.530;2023-07-30T15:44:58;5.57;;;2.22;;
19161;SDS011;9713;48.140;11.530;2023-07-30T15:48:41;1.73;;;1.60;;
19161;SDS011;9713;48.140;11.530;2023-07-30T15:52:24;2.40;;;1.52;;
19161;SDS011;9713;48.140;11.530;2023-07-30T15:56:06;3.58;;;1.80;;
19161;SDS011;9713;48.140;11.530;2023-07-30T15:59:51;3.50;;;1.85;;
19161;SDS011;9713;48.140;11.530;2023-07-30T16:03:33;2.17;;;1.58;;
19161;SDS011;9713;48.140;11.530;2023-07-30T16:07:17;2.03;;;1.50;;
19161;SDS011;9713;48.140;11.530;2023-07-30T16:11:00;1.80;;;1.40;;
19161;SDS011;9713;48.140;11.530;2023-07-30T16:14:43;2.50;;;1.60;;
19161;SDS011;9713;48.140;11.530;2023-07-30T16:18:28;2.03;;;1.77;;
19161;SDS011;9713;48.140;11.530;2023-07-30T16:22:10;2.45;;;1.80;;
19161;SDS011;9713;48.140;11.530;2023-07-30T16:25:53;1.98;;;1.30;;
19161;SDS011;9713;48.140;11.530;2023-07-30T16:29:36;2.85;;;1.95;;
19161;SDS011;9713;48.140;11.530;2023-07-30T16:33:19;1.85;;;1.75;;
19161;SDS011;9713;48.140;11.530;2023-07-30T16:37:04;3.50;;;1.90;;
19161;SDS011;9713;48.140;11.530;2023-07-30T16:40:47;3.28;;;2.10;;
19161;SDS011;9713;48.140;11.530;2023-07-30T16:44:30;4.05;;;2.33;;
19161;SDS011;9713;48.140;11.530;2023-07-30T16:48:13;2.13;;;1.92;;
19161;SDS011;9713;48.140;11.530;2023-07-30T16:51:55;3.05;;;1.85;;
19161;SDS011;9713;48.140;11.530;2023-07-30T16:55:40;2.72;;;1.98;;
19161;SDS011;9713;48.140;11.530;2023-07-30T16:59:23;5.03;;;2.05;;
19161;SDS011;9713;48.140;11.530;2023-07-30T17:03:06;3.42;;;1.92;;
19161;SDS011;9713;48.140;11.530;2023-07-30T17:06:49;3.45;;;2.00;;
19161;SDS011;9713;48.140;11.530;2023-07-30T17:14:19;2.25;;;2.03;;
19161;SDS011;9713;48.140;11.530;2023-07-30T17:18:02;2.88;;;1.80;;
19161;SDS011;9713;48.140;11.530;2023-07-30T17:21:46;2.25;;;2.05;;
19161;SDS011;9713;48.140;11.530;2023-07-30T17:25:29;3.35;;;2.30;;
19161;SDS011;9713;48.140;11.530;2023-07-30T17:29:12;2.95;;;2.03;;
19161;SDS011;9713;48.140;11.530;2023-07-30T17:32:56;3.58;;;2.03;;
19161;SDS011;9713;48.140;11.530;2023-07-30T17:36:40;2.85;;;2.10;;
19161;SDS011;9713;48.140;11.530;2023-07-30T17:40:23;5.20;;;2.30;;
19161;SDS011;9713;48.140;11.530;2023-07-30T17:44:07;5.78;;;2.40;;
19161;SDS011;9713;48.140;11.530;2023-07-30T17:47:50;3.20;;;1.98;;
19161;SDS011;9713;48.140;11.530;2023-07-30T17:51:34;3.85;;;2.17;;
19161;SDS011;9713;48.140;11.530;2023-07-30T17:55:17;3.47;;;2.25;;
19161;SDS011;9713;48.140;11.530;2023-07-30T17:59:00;5.38;;;2.30;;
19161;SDS011;9713;48.140;11.530;2023-07-30T18:02:44;3.38;;;2.00;;
19161;SDS011;9713;48.140;11.530;2023-07-30T18:06:27;3.55;;;2.22;;
19161;SDS011;9713;48.140;11.530;2023-07-30T18:10:12;3.72;;;2.15;;
19161;SDS011;9713;48.140;11.530;2023-07-30T18:13:58;3.50;;;2.50;;
19161;SDS011;9713;48.140;11.530;2023-07-30T18:17:41;5.72;;;2.25;;
19161;SDS011;9713;48.140;11.530;2023-07-30T18:21:24;3.72;;;2.33;;
19161;SDS011;9713;48.140;11.530;2023-07-30T18:25:07;4.60;;;2.25;;
19161;SDS011;9713;48.140;11.530;2023-07-30T18:28:51;6.30;;;2.50;;
19161;SDS011;9713;48.140;11.530;2023-07-30T18:32:35;5.13;;;2.78;;
19161;SDS011;9713;48.140;11.530;2023-07-30T18:36:18;5.63;;;2.35;;
19161;SDS011;9713;48.140;11.530;2023-07-30T18:40:00;5.20;;;2.45;;
19161;SDS011;9713;48.140;11.530;2023-07-30T18:43:46;4.20;;;2.58;;
19161;SDS011;9713;48.140;11.530;2023-07-30T18:47:31;3.95;;;2.55;;
19161;SDS011;9713;48.140;11.530;2023-07-30T18:51:14;3.22;;;2.38;;
19161;SDS011;9713;48.140;11.530;2023-07-30T18:54:57;3.50;;;2.28;;
19161;SDS011;9713;48.140;11.530;2023-07-30T18:58:40;3.83;;;2.55;;
19161;SDS011;9713;48.140;11.530;2023-07-30T19:02:23;3.85;;;2.40;;
19161;SDS011;9713;48.140;11.530;2023-07-30T19:06:07;4.07;;;2.50;;
19161;SDS011;9713;48.140;11.530;2023-07-30T19:09:53;4.13;;;2.53;;
19161;SDS011;9713;48.140;11.530;2023-07-30T19:13:36;5.25;;;3.03;;
19161;SDS011;9713;48.140;11.530;2023-07-30T19:17:20;4.28;;;2.95;;
19161;SDS011;9713;48.140;11.530;2023-07-30T19:21:10;4.40;;;2.55;;
19161;SDS011;9713;48.140;11.530;2023-07-30T19:24:53;11.45;;;4.43;;
19161;SDS011;9713;48.140;11.530;2023-07-30T19:28:36;4.88;;;2.97;;
19161;SDS011;9713;48.140;11.530;2023-07-30T19:32:19;5.97;;;3.65;;
19161;SDS011;9713;48.140;11.530;2023-07-30T19:36:05;4.85;;;2.60;;
19161;SDS011;9713;48.140;11.530;2023-07-30T19:39:49;4.43;;;2.85;;
19161;SDS011;9713;48.140;11.530;2023-07-30T19:43:32;6.78;;;2.40;;
19161;SDS011;9713;48.140;11.530;2023-07-30T19:47:16;7.30;;;2.38;;
19161;SDS011;9713;48.140;11.530;2023-07-30T19:51:07;13.68;;;5.00;;
19161;SDS011;9713;48.140;11.530;2023-07-30T19:54:52;3.40;;;2.45;;
19161;SDS011;9713;48.140;11.530;2023-07-30T19:58:35;5.10;;;2.40;;
19161;SDS011;9713;48.140;11.530;2023-07-30T20:02:18;5.57;;;2.22;;
19161;SDS011;9713;48.140;11.530;2023-07-30T20:06:04;4.00;;;2.58;;
19161;SDS011;9713;48.140;11.530;2023-07-30T20:09:48;5.18;;;2.30;;
19161;SDS011;9713;48.140;11.530;2023-07-30T20:13:33;5.30;;;2.20;;
19161;SDS011;9713;48.140;11.530;2023-07-30T20:17:15;5.47;;;2.40;;
19161;SDS011;9713;48.140;11.530;2023-07-30T20:20:59;3.60;;;2.30;;
19161;SDS011;9713;48.140;11.530;2023-07-30T20:24:41;5.35;;;2.40;;
19161;SDS011;9713;48.140;11.530;2023-07-30T20:28:25;4.93;;;2.30;;
19161;SDS011;9713;48.140;11.530;2023-07-30T20:32:12;6.97;;;3.60;;
19161;SDS011;9713;48.140;11.530;2023-07-30T20:36:01;8.45;;;3.50;;
19161;SDS011;9713;48.140;11.530;2023-07-30T20:39:45;6.30;;;2.20;;
19161;SDS011;9713;48.140;11.530;2023-07-30T20:43:28;6.10;;;2.00;;
19161;SDS011;9713;48.140;11.530;2023-07-30T20:47:12;4.30;;;2.10;;
19161;SDS011;9713;48.140;11.530;2023-07-30T20:50:56;5.57;;;2.13;;
19161;SDS011;9713;48.140;11.530;2023-07-30T20:54:41;5.82;;;2.08;;
19161;SDS011;9713;48.140;11.530;2023-07-30T20:58:24;3.00;;;1.73;;
19161;SDS011;9713;48.140;11.530;2023-07-30T21:02:08;4.10;;;2.20;;
19161;SDS011;9713;48.140;11.530;2023-07-30T21:05:52;6.33;;;2.30;;
19161;SDS011;9713;48.140;11.530;2023-07-30T21:09:35;8.60;;;2.50;;
19161;SDS011;9713;48.140;11.530;2023-07-30T21:13:19;3.17;;;1.73;;
19161;SDS011;9713;48.140;11.530;2023-07-30T21:17:02;3.53;;;2.27;;
19161;SDS011;9713;48.140;11.530;2023-07-30T21:20:52;4.17;;;2.20;;
19161;SDS011;9713;48.140;11.530;2023-07-30T21:24:35;3.47;;;1.87;;
19161;SDS011;9713;48.140;11.530;2023-07-30T21:28:21;3.57;;;1.97;;
19161;SDS011;9713;48.140;11.530;2023-07-30T21:32:04;4.75;;;1.77;;
19161;SDS011;9713;48.140;11.530;2023-07-30T21:35:47;5.57;;;1.80;;
19161;SDS011;9713;48.140;11.530;2023-07-30T21:39:34;3.65;;;2.00;;
19161;SDS011;9713;48.140;11.530;2023-07-30T21:43:17;5.35;;;2.00;;
19161;SDS011;9713;48.140;11.530;2023-07-30T21:47:00;3.73;;;1.77;;
19161;SDS011;9713;48.140;11.530;2023-07-30T21:50:44;7.25;;;2.20;;
19161;SDS011;9713;48.140;11.530;2023-07-30T21:54:27;6.07;;;2.00;;
19161;SDS011;9713;48.140;11.530;2023-07-30T21:58:11;5.65;;;1.95;;
19161;SDS011;9713;48.140;11.530;2023-07-30T22:01:54;4.18;;;2.20;;
19161;SDS011;9713;48.140;11.530;2023-07-30T22:05:37;3.50;;;2.20;;
19161;SDS011;9713;48.140;11.530;2023-07-30T22:09:20;3.75;;;1.83;;
19161;SDS011;9713;48.140;11.530;2023-07-30T22:13:06;5.72;;;2.20;;
19161;SDS011;9713;48.140;11.530;2023-07-30T22:16:52;5.93;;;2.60;;
19161;SDS011;9713;48.140;11.530;2023-07-30T22:20:35;2.80;;;2.08;;
19161;SDS011;9713;48.140;11.530;2023-07-30T22:24:18;4.15;;;1.90;;
19161;SDS011;9713;48.140;11.530;2023-07-30T22:28:01;8.82;;;2.28;;
19161;SDS011;9713;48.140;11.530;2023-07-30T22:31:50;3.67;;;2.25;;
19161;SDS011;9713;48.140;11.530;2023-07-30T22:35:34;3.95;;;1.80;;